Time;durP1;ratioP1;P1;durP2;ratioP2;P2;SDS_P1;SDS_P2;PMS_P1;PMS_P2;Temp;Humidity;BMP_temperature;BMP_pressure;BME280_temperature;BME280_humidity;BME280_pressure;Samples;Min_cycle;Max_cycle;Signal;HPM_P1;HPM_P2
2022/06/24 00:01:35;;;;;;;5.25;3.33;;;20.70;99.90;;;;;;5069680;28;20102;-67
2022/06/24 00:04:00;;;;;;;3.38;3.08;;;20.60;99.90;;;;;;5072704;28;20388;-69
2022/06/24 00:06:40;;;;;;;3.45;3.22;;;20.60;99.90;;;;;;5072844;28;20074;-67
2022/06/24 00:09:05;;;;;;;6.97;2.97;;;20.60;99.90;;;;;;5092677;28;20076;-68
2022/06/24 00:11:31;;;;;;;4.85;3.05;;;20.50;99.90;;;;;;5089934;28;20534;-67
2022/06/24 00:14:08;;;;;;;4.00;3.60;;;20.50;99.90;;;;;;5075178;28;20048;-68
2022/06/24 00:17:00;;;;;;;3.58;3.28;;;20.40;99.90;;;;;;5071934;28;20063;-67
2022/06/24 00:19:28;;;;;;;6.63;3.70;;;20.40;99.90;;;;;;5061649;28;20055;-68
2022/06/24 00:22:01;;;;;;;4.00;3.20;;;20.30;99.90;;;;;;5071921;28;20048;-67
2022/06/24 00:24:27;;;;;;;3.78;2.92;;;20.30;99.90;;;;;;5072440;28;20056;-68
2022/06/24 00:26:52;;;;;;;6.25;3.17;;;20.30;99.90;;;;;;5072449;28;20101;-66
2022/06/24 00:29:19;;;;;;;5.97;3.50;;;20.30;99.90;;;;;;5086387;28;20056;-67
2022/06/24 00:32:04;;;;;;;5.38;3.28;;;20.20;99.90;;;;;;5087978;28;20143;-68
2022/06/24 00:34:30;;;;;;;3.53;2.90;;;20.20;99.90;;;;;;5086522;28;20104;-68
2022/06/24 00:36:56;;;;;;;4.00;3.00;;;20.20;99.90;;;;;;5080231;28;20150;-69
2022/06/24 00:39:33;;;;;;;4.43;2.97;;;20.10;99.90;;;;;;5089438;28;20048;-68
2022/06/24 00:42:00;;;;;;;3.95;3.40;;;20.10;99.90;;;;;;5093056;28;20087;-69
2022/06/24 00:48:30;;;;;;;3.83;3.00;;;20.00;99.90;;;;;;5056775;28;20114;-68
2022/06/24 00:50:56;;;;;;;4.78;3.38;;;19.90;99.90;;;;;;5033371;28;20516;-67
2022/06/24 00:53:48;;;;;;;3.30;3.00;;;19.90;99.90;;;;;;5058869;28;20052;-68
2022/06/24 00:56:20;;;;;;;4.72;3.53;;;19.80;99.90;;;;;;5074159;28;20086;-68
2022/06/24 00:58:57;;;;;;;4.65;3.40;;;19.70;99.90;;;;;;5081225;28;20395;-68
2022/06/24 01:01:37;;;;;;;5.97;3.47;;;19.70;99.90;;;;;;5093125;28;20084;-69
2022/06/24 01:04:07;;;;;;;5.00;3.40;;;19.70;99.90;;;;;;5082700;28;20048;-69
2022/06/24 01:06:34;;;;;;;3.92;3.50;;;19.70;99.90;;;;;;5071162;28;20044;-67
2022/06/24 01:08:59;;;;;;;3.95;3.65;;;19.60;99.90;;;;;;5071703;28;20051;-67
2022/06/24 01:11:29;;;;;;;4.20;3.70;;;19.70;99.90;;;;;;5080886;28;20048;-68
2022/06/24 01:13:55;;;;;;;3.75;3.45;;;19.70;99.90;;;;;;5093313;28;20048;-69
2022/06/24 01:16:22;;;;;;;5.65;3.53;;;19.70;99.90;;;;;;5088503;28;20484;-67
2022/06/24 01:18:52;;;;;;;3.85;3.55;;;19.60;99.90;;;;;;5058870;28;20053;-69
2022/06/24 01:21:36;;;;;;;3.88;3.28;;;19.60;99.90;;;;;;5072924;28;20101;-69
2022/06/24 01:24:11;;;;;;;5.95;3.38;;;19.60;99.90;;;;;;5070732;28;20098;-69
2022/06/24 01:26:38;;;;;;;4.28;3.88;;;19.50;99.90;;;;;;5084474;28;20433;-68
2022/06/24 01:29:04;;;;;;;4.22;3.72;;;19.50;99.90;;;;;;5073023;28;20048;-69
2022/06/24 01:31:30;;;;;;;4.05;3.40;;;19.50;99.90;;;;;;5085514;28;20498;-68
2022/06/24 01:33:57;;;;;;;4.15;3.60;;;19.40;99.90;;;;;;5080298;28;20040;-68
2022/06/24 01:36:22;;;;;;;3.60;3.30;;;19.40;99.90;;;;;;5088431;28;20421;-68
2022/06/24 01:38:48;;;;;;;3.70;3.40;;;19.30;99.90;;;;;;5059741;28;20098;-67
2022/06/24 01:41:14;;;;;;;3.78;3.47;;;19.30;99.90;;;;;;5072285;28;20075;-69
2022/06/24 01:43:39;;;;;;;5.57;3.90;;;19.20;99.90;;;;;;5074128;28;20099;-67
2022/06/24 01:46:06;;;;;;;4.68;3.63;;;19.30;99.90;;;;;;5091192;28;20055;-68
2022/06/24 01:48:32;;;;;;;3.90;3.60;;;19.20;99.90;;;;;;5078880;28;20544;-67
2022/06/24 01:50:58;;;;;;;4.97;3.78;;;19.20;99.90;;;;;;5071880;28;20048;-67
2022/06/24 01:53:23;;;;;;;6.43;3.70;;;19.10;99.90;;;;;;5071008;28;20060;-69
2022/06/24 01:55:49;;;;;;;4.05;3.65;;;19.10;99.90;;;;;;5070737;28;20052;-68
2022/06/24 01:58:14;;;;;;;3.80;3.50;;;19.10;99.90;;;;;;5078510;28;20058;-68
2022/06/24 02:00:40;;;;;;;5.05;3.83;;;19.20;99.90;;;;;;5088947;28;20127;-68
2022/06/24 02:03:06;;;;;;;4.13;3.38;;;19.20;99.90;;;;;;5078114;28;20135;-68
2022/06/24 02:05:32;;;;;;;6.03;3.92;;;19.20;99.90;;;;;;5070444;28;20129;-67
2022/06/24 02:07:58;;;;;;;4.20;3.70;;;19.20;99.90;;;;;;5070131;28;20064;-68
2022/06/24 02:13:29;;;;;;;5.50;3.60;;;19.20;99.90;;;;;;5087922;28;20052;-69
2022/06/24 02:16:03;;;;;;;5.93;3.80;;;19.10;99.90;;;;;;5070500;28;20485;-68
2022/06/24 02:18:30;;;;;;;3.90;3.60;;;19.10;99.90;;;;;;5070975;28;20060;-67
2022/06/24 02:20:56;;;;;;;3.95;3.65;;;19.10;99.90;;;;;;5079260;28;20062;-68
2022/06/24 02:23:22;;;;;;;5.75;3.92;;;19.10;99.90;;;;;;5070951;28;20070;-67
2022/06/24 02:25:49;;;;;;;4.07;3.75;;;19.10;99.90;;;;;;5083482;28;20123;-68
2022/06/24 02:28:16;;;;;;;3.95;3.65;;;19.10;99.90;;;;;;5080525;28;20040;-67
2022/06/24 02:30:42;;;;;;;4.10;3.42;;;19.10;99.90;;;;;;5091039;28;20105;-67
2022/06/24 02:33:09;;;;;;;4.28;3.95;;;19.20;99.90;;;;;;5090540;28;20044;-68
2022/06/24 02:35:35;;;;;;;3.85;3.53;;;19.10;99.90;;;;;;5082892;28;20051;-68
2022/06/24 02:38:01;;;;;;;6.38;3.88;;;19.20;99.90;;;;;;5073381;28;20440;-69
2022/06/24 02:40:45;;;;;;;5.60;4.00;;;19.20;99.90;;;;;;5091312;28;20095;-69
2022/06/24 02:43:13;;;;;;;4.13;3.65;;;19.20;99.90;;;;;;5077098;28;20434;-68
2022/06/24 02:45:53;;;;;;;4.07;3.63;;;19.30;99.90;;;;;;5126405;27;20052;-69
2022/06/24 02:48:20;;;;;;;4.35;3.97;;;19.30;99.90;;;;;;5092153;28;20504;-67
2022/06/24 02:50:48;;;;;;;4.00;3.60;;;19.30;99.90;;;;;;5082289;28;20102;-69
2022/06/24 02:53:16;;;;;;;4.57;3.78;;;19.30;99.90;;;;;;5075445;28;20059;-68
2022/06/24 02:55:43;;;;;;;4.57;3.85;;;19.40;99.90;;;;;;5079520;28;20385;-67
2022/06/24 02:58:09;;;;;;;4.85;3.90;;;19.40;99.90;;;;;;5087741;28;20053;-67
2022/06/24 03:00:34;;;;;;;4.63;3.90;;;19.40;99.90;;;;;;5074755;28;20114;-68
2022/06/24 03:03:00;;;;;;;5.03;4.00;;;19.40;99.90;;;;;;5081418;28;20217;-68
2022/06/24 03:05:27;;;;;;;4.97;3.67;;;19.40;99.90;;;;;;5090497;28;20063;-67
2022/06/24 03:07:53;;;;;;;5.38;3.67;;;19.40;99.90;;;;;;5074678;28;20481;-68
2022/06/24 03:10:20;;;;;;;3.95;3.63;;;19.40;99.90;;;;;;5094020;28;20504;-68
2022/06/24 03:12:45;;;;;;;5.63;3.90;;;19.40;99.90;;;;;;5093469;28;20056;-69
2022/06/24 03:15:11;;;;;;;4.93;3.40;;;19.40;99.90;;;;;;5093570;28;20131;-68
2022/06/24 03:17:37;;;;;;;4.13;3.72;;;19.30;99.90;;;;;;5091227;28;20113;-68
2022/06/24 03:20:07;;;;;;;5.70;3.65;;;19.30;99.90;;;;;;5073180;28;20052;-69
2022/06/24 03:22:33;;;;;;;3.95;3.65;;;19.20;99.90;;;;;;5074577;28;20067;-68
2022/06/24 03:24:59;;;;;;;4.13;3.38;;;19.10;99.90;;;;;;5074751;28;20128;-69
2022/06/24 03:27:24;;;;;;;5.30;3.78;;;19.20;99.90;;;;;;5075110;28;20090;-69
2022/06/24 03:29:50;;;;;;;4.43;3.65;;;19.20;99.90;;;;;;5093149;28;20052;-69
2022/06/24 03:32:16;;;;;;;4.70;3.80;;;19.20;99.90;;;;;;5094441;28;20106;-67
2022/06/24 03:34:42;;;;;;;6.20;4.20;;;19.20;99.90;;;;;;5079890;28;20049;-68
2022/06/24 03:37:08;;;;;;;5.03;3.80;;;19.20;99.90;;;;;;5073033;28;20063;-68
2022/06/24 03:39:33;;;;;;;4.57;3.70;;;19.20;99.90;;;;;;5085268;28;20044;-69
2022/06/24 03:41:59;;;;;;;5.32;3.72;;;19.20;99.90;;;;;;5124437;27;20054;-67
2022/06/24 03:44:25;;;;;;;3.78;3.45;;;19.20;99.90;;;;;;5093689;28;20388;-69
2022/06/24 03:46:51;;;;;;;4.30;3.92;;;19.20;99.90;;;;;;5089360;28;20040;-69
2022/06/24 03:49:19;;;;;;;3.80;3.40;;;19.20;99.90;;;;;;5077780;28;20040;-67
2022/06/24 03:51:44;;;;;;;4.65;4.18;;;19.30;99.90;;;;;;5093085;28;20123;-68
2022/06/24 03:54:10;;;;;;;5.40;4.07;;;19.30;99.90;;;;;;5062682;28;20127;-68
2022/06/24 03:56:35;;;;;;;5.65;3.85;;;19.30;99.90;;;;;;5073380;28;20055;-67
2022/06/24 03:59:04;;;;;;;4.40;4.00;;;19.40;99.90;;;;;;5076677;28;20064;-67
2022/06/24 04:01:30;;;;;;;5.97;4.03;;;19.40;99.90;;;;;;5093001;28;20121;-68
2022/06/24 04:03:56;;;;;;;4.40;3.97;;;19.40;99.90;;;;;;5081939;28;20354;-69
2022/06/24 04:06:22;;;;;;;4.32;3.95;;;19.40;99.90;;;;;;5093298;28;20086;-69
2022/06/24 04:09:14;;;;;;;4.38;3.75;;;19.40;99.90;;;;;;5088612;28;20071;-68
2022/06/24 04:12:07;;;;;;;5.90;3.97;;;19.50;99.90;;;;;;5094053;28;20106;-69
2022/06/24 04:15:17;;;;;;;5.13;4.07;;;19.50;99.90;;;;;;5092264;28;20064;-69
2022/06/24 04:17:45;;;;;;;4.88;4.35;;;19.60;99.90;;;;;;5088183;28;20168;-69
2022/06/24 04:20:12;;;;;;;5.88;4.53;;;19.60;99.90;;;;;;5054221;28;20060;-68
2022/06/24 04:23:03;;;;;;;6.38;4.20;;;19.60;99.90;;;;;;5068535;28;20053;-69
2022/06/24 04:25:29;;;;;;;5.60;4.68;;;19.70;99.90;;;;;;5052337;28;20060;-68
2022/06/24 04:27:55;;;;;;;5.00;4.53;;;19.60;99.90;;;;;;5082455;28;20058;-68
2022/06/24 04:30:24;;;;;;;4.53;4.22;;;19.80;99.90;;;;;;5086130;28;20047;-69
2022/06/24 04:33:45;;;;;;;5.10;4.60;;;19.80;99.90;;;;;;5053047;28;20060;-68
2022/06/24 04:36:14;;;;;;;5.53;4.95;;;19.90;99.90;;;;;;5088197;28;20504;-69
2022/06/24 04:38:40;;;;;;;5.13;4.63;;;20.00;99.90;;;;;;5071522;28;20052;-68
2022/06/24 04:41:13;;;;;;;7.07;6.00;;;20.10;99.90;;;;;;5075141;28;20060;-68
2022/06/24 04:43:38;;;;;;;7.82;7.13;;;20.10;99.90;;;;;;5059912;28;20044;-67
2022/06/24 04:46:04;;;;;;;8.32;7.53;;;20.10;99.90;;;;;;5074313;28;20054;-68
2022/06/24 04:48:30;;;;;;;10.13;8.13;;;20.20;99.90;;;;;;5072004;28;20400;-69
2022/06/24 04:50:56;;;;;;;9.90;8.75;;;20.30;99.90;;;;;;5071714;28;20044;-67
2022/06/24 04:53:21;;;;;;;9.88;8.60;;;20.40;99.90;;;;;;5075434;28;20535;-68
2022/06/24 04:55:47;;;;;;;9.77;8.82;;;20.50;99.90;;;;;;5073647;28;20098;-68
2022/06/24 04:58:12;;;;;;;10.52;7.13;;;20.60;99.90;;;;;;5076629;28;20088;-68
2022/06/24 05:00:38;;;;;;;7.47;6.57;;;20.80;99.90;;;;;;5072913;28;20052;-69
2022/06/24 05:03:04;;;;;;;7.05;5.78;;;21.00;99.90;;;;;;5068628;28;20057;-68
2022/06/24 05:05:30;;;;;;;5.82;4.82;;;21.10;99.90;;;;;;5068396;28;20138;-68
2022/06/24 05:07:55;;;;;;;5.40;4.90;;;21.20;99.90;;;;;;5087105;28;20058;-69
2022/06/24 05:10:21;;;;;;;5.05;4.65;;;21.20;99.90;;;;;;5091853;28;20055;-68
2022/06/24 05:12:46;;;;;;;5.22;4.30;;;21.30;99.90;;;;;;5085860;28;20051;-67
2022/06/24 05:15:12;;;;;;;5.45;3.90;;;21.30;99.90;;;;;;5093245;28;20079;-69
2022/06/24 05:17:38;;;;;;;5.53;4.03;;;21.30;99.90;;;;;;5092248;28;20395;-68
2022/06/24 05:20:05;;;;;;;5.80;4.28;;;21.30;99.90;;;;;;5073677;28;20058;-68
2022/06/24 05:22:30;;;;;;;6.22;4.18;;;21.20;99.90;;;;;;5089090;28;20048;-67
2022/06/24 05:24:56;;;;;;;5.03;4.20;;;21.10;99.90;;;;;;5070680;28;20097;-69
2022/06/24 05:27:22;;;;;;;6.72;4.32;;;21.10;99.90;;;;;;5075622;28;20106;-68
2022/06/24 05:29:48;;;;;;;5.13;4.07;;;21.00;99.90;;;;;;5064095;28;20052;-67
2022/06/24 05:32:14;;;;;;;6.07;4.53;;;21.00;99.90;;;;;;5061152;28;20056;-68
2022/06/24 05:34:40;;;;;;;5.97;4.03;;;20.90;99.90;;;;;;5103346;28;20048;-69
2022/06/24 05:37:06;;;;;;;5.13;4.63;;;20.80;99.90;;;;;;5067483;28;20127;-69
2022/06/24 05:39:32;;;;;;;4.78;4.35;;;20.70;99.90;;;;;;5096737;28;20049;-67
2022/06/24 05:41:58;;;;;;;6.05;4.95;;;20.70;99.90;;;;;;5066573;28;20040;-68
2022/06/24 05:44:23;;;;;;;4.75;4.32;;;20.60;99.90;;;;;;5072629;28;20048;-68
2022/06/24 05:46:50;;;;;;;5.68;4.72;;;20.60;99.90;;;;;;5071039;28;20774;-68
2022/06/24 05:49:16;;;;;;;6.35;4.65;;;20.60;99.90;;;;;;5072537;28;20057;-68
2022/06/24 05:51:42;;;;;;;5.80;4.30;;;20.60;99.90;;;;;;5070844;28;20051;-69
2022/06/24 05:56:51;;;;;;;4.78;4.28;;;20.50;99.90;;;;;;5072332;28;20131;-70
2022/06/24 05:59:17;;;;;;;5.40;4.55;;;20.40;99.90;;;;;;5071079;28;20131;-71
2022/06/24 06:01:42;;;;;;;5.75;4.22;;;20.30;99.90;;;;;;5071697;28;20095;-69
2022/06/24 06:04:08;;;;;;;6.05;4.45;;;20.30;99.90;;;;;;5071598;28;20566;-68
2022/06/24 06:06:36;;;;;;;5.05;4.10;;;20.40;99.90;;;;;;5070903;28;20063;-69
2022/06/24 06:09:06;;;;;;;4.95;4.45;;;20.30;99.90;;;;;;5070533;28;20041;-69
2022/06/24 06:11:32;;;;;;;4.93;4.30;;;20.40;99.90;;;;;;5055972;28;20048;-70
2022/06/24 06:13:57;;;;;;;4.53;4.05;;;20.40;99.90;;;;;;5108162;28;20052;-69
2022/06/24 06:16:23;;;;;;;4.72;4.30;;;20.40;99.90;;;;;;5074365;28;20505;-69
2022/06/24 06:18:50;;;;;;;5.63;3.90;;;20.50;99.90;;;;;;5075397;28;20137;-69
2022/06/24 06:21:16;;;;;;;5.80;4.07;;;20.60;99.90;;;;;;5076023;28;20045;-69
2022/06/24 06:23:43;;;;;;;4.07;3.70;;;20.60;99.90;;;;;;5075553;28;20056;-70
2022/06/24 06:26:09;;;;;;;5.07;3.95;;;20.70;99.90;;;;;;5085859;28;20063;-70
2022/06/24 06:28:36;;;;;;;5.93;4.53;;;20.80;99.90;;;;;;5074379;28;20319;-68
2022/06/24 06:31:02;;;;;;;4.05;3.70;;;20.80;99.90;;;;;;5074828;28;20052;-70
2022/06/24 06:33:31;;;;;;;4.75;3.90;;;20.80;99.90;;;;;;5073400;28;20083;-69
2022/06/24 06:36:03;;;;;;;6.38;3.78;;;20.80;99.90;;;;;;5088892;28;20044;-69
2022/06/24 06:38:28;;;;;;;3.97;3.50;;;20.80;99.90;;;;;;5094411;28;20056;-70
2022/06/24 06:40:54;;;;;;;4.25;3.53;;;20.70;99.90;;;;;;5095331;28;20059;-70
2022/06/24 06:43:20;;;;;;;4.50;4.10;;;20.70;99.90;;;;;;5080325;28;20048;-68
2022/06/24 06:45:46;;;;;;;6.10;3.60;;;20.70;99.90;;;;;;5074292;28;20053;-68
2022/06/24 06:48:11;;;;;;;6.68;3.88;;;20.70;99.90;;;;;;5074503;28;20044;-70
2022/06/24 06:50:37;;;;;;;4.38;3.97;;;20.60;99.90;;;;;;5074185;28;20052;-69
2022/06/24 06:53:03;;;;;;;4.68;3.60;;;20.70;99.90;;;;;;5074942;28;20049;-69
2022/06/24 06:55:29;;;;;;;4.43;3.83;;;20.60;99.90;;;;;;5075309;28;20116;-70
2022/06/24 06:57:54;;;;;;;5.07;3.88;;;20.60;99.90;;;;;;5069510;28;20052;-70
2022/06/24 07:00:21;;;;;;;4.82;4.10;;;20.50;99.90;;;;;;5074902;28;20055;-70
2022/06/24 07:02:46;;;;;;;7.65;4.70;;;20.40;99.90;;;;;;5073018;28;20043;-70
2022/06/24 07:05:12;;;;;;;6.10;4.20;;;20.40;99.90;;;;;;5074029;28;20048;-69
2022/06/24 07:07:37;;;;;;;5.03;3.90;;;20.40;99.90;;;;;;5073313;28;20139;-69
2022/06/24 07:10:03;;;;;;;3.92;3.63;;;20.40;99.90;;;;;;5090260;28;20059;-70
2022/06/24 07:16:11;;;;;;;4.68;4.28;;;20.40;99.90;;;;;;5084644;28;20056;-72
2022/06/24 07:18:37;;;;;;;7.38;4.20;;;20.40;99.90;;;;;;5089309;28;20438;-72
2022/06/24 07:21:03;;;;;;;6.50;4.47;;;20.40;99.90;;;;;;5073994;28;20053;-71
2022/06/24 07:23:28;;;;;;;7.85;4.47;;;20.40;99.90;;;;;;5078277;28;20069;-71
2022/06/24 07:25:58;;;;;;;6.13;4.72;;;20.40;99.90;;;;;;5073310;28;20083;-70
2022/06/24 07:28:25;;;;;;;5.07;4.57;;;20.40;99.90;;;;;;5087367;28;20064;-70
2022/06/24 07:30:51;;;;;;;5.07;4.53;;;20.40;99.90;;;;;;5072722;28;20044;-70
2022/06/24 07:33:17;;;;;;;5.30;4.70;;;20.40;99.90;;;;;;5072902;28;20040;-70
2022/06/24 07:35:43;;;;;;;6.00;4.82;;;20.40;99.90;;;;;;5072014;28;20330;-70
2022/06/24 07:38:09;;;;;;;6.95;4.93;;;20.40;99.90;;;;;;5072368;28;20048;-72
2022/06/24 07:40:35;;;;;;;5.75;5.07;;;20.40;99.90;;;;;;5072662;28;20155;-71
2022/06/24 07:43:00;;;;;;;7.45;5.00;;;20.40;99.90;;;;;;5073766;28;20429;-71
2022/06/24 07:45:26;;;;;;;7.57;5.28;;;20.40;99.90;;;;;;5056096;28;20048;-69
2022/06/24 07:47:52;;;;;;;5.95;5.20;;;20.40;99.90;;;;;;5070837;28;20062;-70
2022/06/24 07:50:18;;;;;;;6.40;5.72;;;20.30;99.90;;;;;;5071741;28;20498;-69
2022/06/24 07:52:43;;;;;;;5.80;5.30;;;20.40;99.90;;;;;;5070433;28;21153;-71
2022/06/24 07:57:53;;;;;;;7.05;6.13;;;20.30;99.90;;;;;;5069933;28;20055;-71
2022/06/24 08:00:19;;;;;;;6.75;6.03;;;20.30;99.90;;;;;;5074669;28;20048;-70
2022/06/24 08:02:45;;;;;;;9.52;6.35;;;20.30;99.90;;;;;;5072003;28;20052;-71
2022/06/24 08:05:10;;;;;;;6.35;5.75;;;20.30;99.90;;;;;;5079789;28;20130;-70
2022/06/24 08:07:36;;;;;;;7.57;5.70;;;20.30;99.90;;;;;;5078527;28;20066;-70
2022/06/24 08:10:02;;;;;;;6.30;5.57;;;20.20;99.90;;;;;;5080262;28;20477;-70
2022/06/24 08:12:27;;;;;;;5.80;5.30;;;20.20;99.90;;;;;;5092510;28;20040;-69
2022/06/24 08:14:53;;;;;;;7.13;6.07;;;20.20;99.90;;;;;;5093436;28;20150;-71
2022/06/24 08:17:19;;;;;;;6.75;6.05;;;20.20;99.90;;;;;;5092307;28;20049;-71
2022/06/24 08:19:44;;;;;;;6.15;5.57;;;20.20;99.90;;;;;;5088404;28;20055;-70
2022/06/24 08:22:10;;;;;;;6.88;6.10;;;20.20;99.90;;;;;;5072051;28;20488;-69
2022/06/24 08:24:36;;;;;;;6.78;6.15;;;20.20;99.90;;;;;;5073229;28;20105;-71
2022/06/24 08:27:02;;;;;;;6.13;5.53;;;20.30;99.90;;;;;;5073150;28;20053;-70
2022/06/24 08:29:28;;;;;;;6.45;5.85;;;20.30;99.90;;;;;;5073625;28;20109;-70
2022/06/24 08:31:53;;;;;;;8.50;6.15;;;20.20;99.90;;;;;;5071920;28;20083;-71
2022/06/24 08:34:21;;;;;;;7.20;6.47;;;20.20;99.90;;;;;;5070989;28;20209;-71
2022/06/24 08:36:47;;;;;;;6.57;6.05;;;20.30;99.90;;;;;;5070768;28;20044;-70
2022/06/24 08:39:13;;;;;;;6.97;6.28;;;20.30;99.90;;;;;;5072342;28;20060;-71
2022/06/24 08:41:41;;;;;;;7.65;6.85;;;20.30;99.90;;;;;;5073213;28;20045;-70
2022/06/24 08:44:06;;;;;;;8.38;6.50;;;20.40;99.90;;;;;;5071769;28;20086;-71
2022/06/24 08:46:32;;;;;;;7.32;6.72;;;20.40;99.90;;;;;;5071992;28;20052;-69
2022/06/24 08:48:59;;;;;;;8.35;7.43;;;20.40;99.90;;;;;;5072419;28;20087;-69
2022/06/24 08:51:26;;;;;;;9.07;7.20;;;20.50;99.90;;;;;;5072891;28;20120;-69
2022/06/24 08:54:00;;;;;;;8.15;6.68;;;20.50;99.90;;;;;;5073165;28;20044;-69
2022/06/24 08:56:26;;;;;;;8.00;7.15;;;20.50;99.90;;;;;;5073369;28;20083;-70
2022/06/24 08:58:53;;;;;;;9.77;8.77;;;20.40;99.90;;;;;;5073636;28;20076;-69
2022/06/24 09:01:19;;;;;;;9.48;8.48;;;20.50;99.90;;;;;;5072174;28;20075;-70
2022/06/24 09:03:44;;;;;;;9.60;8.55;;;20.40;99.90;;;;;;5072589;28;20045;-70
2022/06/24 09:06:15;;;;;;;9.57;8.45;;;20.40;99.90;;;;;;5071546;28;20052;-70
2022/06/24 09:08:46;;;;;;;10.02;8.48;;;20.50;99.90;;;;;;5072712;28;20404;-69
2022/06/24 09:11:11;;;;;;;16.67;9.10;;;20.40;99.90;;;;;;5072801;28;20522;-71
2022/06/24 09:13:45;;;;;;;10.27;8.30;;;20.40;99.90;;;;;;5071479;28;20084;-70
2022/06/24 09:16:13;;;;;;;10.20;8.52;;;20.40;99.90;;;;;;5071579;28;20057;-70
2022/06/24 09:18:39;;;;;;;8.82;7.38;;;20.40;99.90;;;;;;5072187;28;20048;-71
2022/06/24 09:21:05;;;;;;;8.50;7.70;;;20.30;99.90;;;;;;5072643;28;20511;-70
2022/06/24 09:23:31;;;;;;;8.48;7.65;;;20.40;99.90;;;;;;5071437;28;20052;-70
2022/06/24 09:26:00;;;;;;;8.27;7.35;;;20.30;99.90;;;;;;5072944;28;20045;-71
2022/06/24 09:28:32;;;;;;;7.95;7.18;;;20.30;99.90;;;;;;5072809;28;20485;-71
2022/06/24 09:31:07;;;;;;;7.65;6.88;;;20.30;99.90;;;;;;5070888;28;20405;-71
2022/06/24 09:33:37;;;;;;;9.60;7.38;;;20.30;99.90;;;;;;5069771;28;20063;-71
2022/06/24 09:36:05;;;;;;;10.02;7.05;;;20.20;99.90;;;;;;5075022;28;20064;-71
2022/06/24 09:38:30;;;;;;;10.95;6.38;;;20.10;99.90;;;;;;5091574;28;20082;-71
2022/06/24 09:41:04;;;;;;;15.18;6.70;;;20.00;99.90;;;;;;5091356;28;20044;-70
2022/06/24 09:43:31;;;;;;;8.48;5.88;;;19.70;99.90;;;;;;5074114;28;20060;-70
2022/06/24 09:45:58;;;;;;;7.40;5.07;;;19.50;99.90;;;;;;5090364;28;20570;-71
2022/06/24 09:48:29;;;;;;;8.63;5.60;;;19.30;99.90;;;;;;5074618;28;20071;-72
2022/06/24 09:50:56;;;;;;;7.63;5.13;;;19.20;99.90;;;;;;5081250;28;20082;-71
2022/06/24 09:53:24;;;;;;;5.15;4.20;;;19.10;99.90;;;;;;5079994;28;20049;-73
2022/06/24 09:55:51;;;;;;;4.78;4.15;;;19.00;99.90;;;;;;5076080;28;20549;-72
2022/06/24 09:58:17;;;;;;;5.85;4.10;;;18.90;99.90;;;;;;5074553;28;20482;-72
2022/06/24 10:00:45;;;;;;;6.53;4.50;;;18.80;99.90;;;;;;5077714;28;20052;-71
2022/06/24 10:03:12;;;;;;;6.10;4.45;;;18.80;99.90;;;;;;5090823;28;20051;-72
2022/06/24 10:05:41;;;;;;;5.13;3.60;;;18.80;99.90;;;;;;5078212;28;20064;-71
2022/06/24 10:08:11;;;;;;;5.45;3.40;;;18.70;99.90;;;;;;5075645;28;20167;-71
2022/06/24 10:10:41;;;;;;;3.50;3.20;;;18.70;99.90;;;;;;5079698;28;20051;-71
2022/06/24 10:13:09;;;;;;;5.35;3.90;;;18.60;99.90;;;;;;5073934;28;20055;-71
2022/06/24 10:15:35;;;;;;;7.47;3.60;;;18.60;99.90;;;;;;5072119;28;20183;-72
2022/06/24 10:18:06;;;;;;;4.18;3.78;;;18.50;99.90;;;;;;5089688;28;20497;-72
2022/06/24 10:20:33;;;;;;;4.00;3.65;;;18.40;99.90;;;;;;5095811;28;20333;-71
2022/06/24 10:22:59;;;;;;;4.57;3.80;;;18.30;99.90;;;;;;5082862;28;20052;-71
2022/06/24 10:25:46;;;;;;;6.53;3.72;;;18.30;99.90;;;;;;5096527;28;20040;-72
2022/06/24 10:28:12;;;;;;;3.75;3.35;;;18.30;99.90;;;;;;5072971;28;20056;-73
2022/06/24 10:30:40;;;;;;;3.90;3.60;;;18.20;99.90;;;;;;5074664;28;20124;-69
2022/06/24 10:33:17;;;;;;;3.75;3.40;;;18.30;99.90;;;;;;5061096;28;20131;-71
2022/06/24 10:36:03;;;;;;;6.22;4.30;;;18.20;99.90;;;;;;5066405;28;20053;-71
2022/06/24 10:38:40;;;;;;;6.80;4.25;;;18.30;99.90;;;;;;5075867;28;20044;-72
2022/06/24 10:41:10;;;;;;;5.47;3.78;;;18.30;99.90;;;;;;5076799;28;20088;-71
2022/06/24 10:43:43;;;;;;;5.05;3.60;;;18.30;99.90;;;;;;5074515;28;20055;-71
2022/06/24 10:46:11;;;;;;;6.90;4.95;;;18.30;99.90;;;;;;5075754;28;20084;-72
2022/06/24 10:48:43;;;;;;;6.90;4.35;;;18.40;99.90;;;;;;5073642;28;20460;-71
2022/06/24 10:51:17;;;;;;;5.00;4.03;;;18.40;99.90;;;;;;5074226;28;20072;-70
2022/06/24 10:54:01;;;;;;;4.70;4.30;;;18.40;99.90;;;;;;5090629;28;20067;-70
2022/06/24 10:56:47;;;;;;;5.78;4.35;;;18.40;99.90;;;;;;5073798;28;20048;-71
2022/06/24 10:59:16;;;;;;;5.22;4.53;;;18.50;99.90;;;;;;5073959;28;20505;-71
2022/06/24 11:01:45;;;;;;;5.50;4.43;;;18.90;99.90;;;;;;5080421;28;20047;-70
2022/06/24 11:04:21;;;;;;;4.25;3.85;;;18.70;99.90;;;;;;5096191;28;20091;-69
2022/06/24 11:07:06;;;;;;;5.10;4.18;;;18.70;99.90;;;;;;5095165;28;20103;-69
2022/06/24 11:09:31;;;;;;;4.57;4.10;;;18.70;99.90;;;;;;5088313;28;20048;-70
2022/06/24 11:11:57;;;;;;;5.30;4.18;;;18.70;99.90;;;;;;5073715;28;20047;-69
2022/06/24 11:14:24;;;;;;;5.22;4.47;;;18.80;99.90;;;;;;5091616;28;20059;-68
2022/06/24 11:16:50;;;;;;;4.75;4.00;;;18.80;99.90;;;;;;5094914;28;20048;-70
2022/06/24 11:19:16;;;;;;;4.88;3.97;;;18.90;99.90;;;;;;5095612;28;20097;-69
2022/06/24 11:21:51;;;;;;;5.90;4.35;;;18.90;99.90;;;;;;5082102;28;20127;-70
2022/06/24 11:24:21;;;;;;;5.10;4.60;;;19.10;99.90;;;;;;5073210;28;20403;-70
2022/06/24 11:27:08;;;;;;;5.10;4.60;;;19.10;99.90;;;;;;5070820;28;20060;-69
2022/06/24 11:29:56;;;;;;;5.05;4.55;;;19.30;99.90;;;;;;5056890;28;20053;-70
2022/06/24 11:32:22;;;;;;;4.80;4.40;;;19.40;99.90;;;;;;5074337;28;20056;-69
2022/06/24 11:34:48;;;;;;;5.00;4.57;;;19.50;99.90;;;;;;5074701;28;20056;-69
2022/06/24 11:37:30;;;;;;;5.20;4.15;;;19.60;99.90;;;;;;5074391;28;20052;-69
2022/06/24 11:39:58;;;;;;;5.45;4.60;;;19.80;99.90;;;;;;5056691;28;20052;-70
2022/06/24 11:42:23;;;;;;;5.10;4.53;;;20.10;99.90;;;;;;5094496;28;20097;-70
2022/06/24 11:44:51;;;;;;;5.55;5.05;;;20.10;99.90;;;;;;5079231;28;20138;-70
2022/06/24 11:47:28;;;;;;;4.88;4.47;;;20.30;99.90;;;;;;5056167;28;20040;-69
2022/06/24 11:49:53;;;;;;;4.93;4.22;;;20.60;99.90;;;;;;5070867;28;20467;-70
2022/06/24 11:52:19;;;;;;;4.90;4.10;;;20.70;99.90;;;;;;5073883;28;20132;-70
2022/06/24 11:54:44;;;;;;;5.65;4.78;;;20.90;99.90;;;;;;5057072;28;20504;-70
2022/06/24 11:57:12;;;;;;;4.97;4.57;;;21.00;99.90;;;;;;5071824;28;20455;-69
2022/06/24 11:59:37;;;;;;;6.32;4.93;;;21.10;99.90;;;;;;5072204;28;20576;-69
2022/06/24 12:02:06;;;;;;;5.90;5.25;;;21.10;99.90;;;;;;5073636;28;20131;-70
2022/06/24 12:04:32;;;;;;;6.72;5.88;;;21.20;99.90;;;;;;5073878;28;20056;-69
2022/06/24 12:07:06;;;;;;;7.07;5.85;;;21.40;99.90;;;;;;5073603;28;20044;-69
2022/06/24 12:09:32;;;;;;;6.95;6.25;;;21.50;99.90;;;;;;5074048;28;20114;-69
2022/06/24 12:12:08;;;;;;;8.18;6.15;;;21.70;99.90;;;;;;5082535;28;20060;-69
2022/06/24 12:14:34;;;;;;;7.78;6.43;;;21.70;99.90;;;;;;5076640;28;20136;-70
2022/06/24 12:17:09;;;;;;;7.35;6.63;;;21.80;99.90;;;;;;5073252;28;20139;-70
2022/06/24 12:19:55;;;;;;;7.97;7.18;;;21.90;99.90;;;;;;5069539;28;20048;-69
2022/06/24 12:22:21;;;;;;;8.60;7.80;;;21.90;99.90;;;;;;5071283;28;20059;-69
2022/06/24 12:24:46;;;;;;;9.30;7.20;;;21.80;99.90;;;;;;5072892;28;20049;-69
2022/06/24 12:27:13;;;;;;;8.98;8.27;;;21.90;99.90;;;;;;5073647;28;20131;-69
2022/06/24 12:29:41;;;;;;;9.13;8.30;;;21.80;99.90;;;;;;5073111;28;20074;-70
2022/06/24 12:32:08;;;;;;;9.70;8.63;;;21.80;99.90;;;;;;5070332;28;20509;-69
2022/06/24 12:34:34;;;;;;;9.63;8.55;;;22.00;99.90;;;;;;5056075;28;20123;-69
2022/06/24 12:37:11;;;;;;;10.40;9.50;;;22.10;99.90;;;;;;5072271;28;20520;-69
2022/06/24 12:39:39;;;;;;;10.40;9.30;;;22.10;99.90;;;;;;5089187;28;20507;-69
2022/06/24 12:42:06;;;;;;;11.20;10.13;;;22.20;99.90;;;;;;5089334;28;20095;-69
2022/06/24 12:44:43;;;;;;;10.45;9.60;;;22.20;99.90;;;;;;5089305;28;20492;-71
2022/06/24 12:52:46;;;;;;;11.25;9.80;;;22.40;99.90;;;;;;5073187;28;20040;-71
2022/06/24 12:55:14;;;;;;;10.70;9.80;;;22.60;99.90;;;;;;5073740;28;20036;-70
2022/06/24 12:57:40;;;;;;;11.35;10.25;;;22.90;99.90;;;;;;5073190;28;20048;-71
2022/06/24 13:00:11;;;;;;;11.52;10.45;;;23.00;99.90;;;;;;5071106;28;20051;-71
2022/06/24 13:02:42;;;;;;;12.88;11.82;;;23.10;99.90;;;;;;5072110;28;20088;-71
2022/06/24 13:05:09;;;;;;;11.73;10.77;;;23.20;99.90;;;;;;5055580;28;20095;-70
2022/06/24 13:07:35;;;;;;;14.40;13.02;;;23.10;99.90;;;;;;5071308;28;20048;-72
2022/06/24 13:10:01;;;;;;;13.98;12.70;;;23.10;99.90;;;;;;5084658;28;20151;-70
2022/06/24 13:12:26;;;;;;;12.75;11.75;;;23.10;99.90;;;;;;5071616;28;20148;-71
2022/06/24 13:14:52;;;;;;;13.20;12.10;;;23.20;99.90;;;;;;5072749;28;20064;-70